sensor_id;sensor_type;location;lat;lon;timestamp;P1;durP1;ratioP1;P2;durP2;ratioP2
39266;SDS011;24967;51.154;13.812;2022-09-14T00:02:14;6.10;;;5.50;;
39266;SDS011;24967;51.154;13.812;2022-09-14T00:04:42;6.20;;;5.68;;
39266;SDS011;24967;51.154;13.812;2022-09-14T00:07:08;7.53;;;6.55;;
39266;SDS011;24967;51.154;13.812;2022-09-14T00:09:35;6.75;;;6.22;;
39266;SDS011;24967;51.154;13.812;2022-09-14T00:12:02;6.22;;;5.45;;
39266;SDS011;24967;51.154;13.812;2022-09-14T00:14:29;7.85;;;6.40;;
39266;SDS011;24967;51.154;13.812;2022-09-14T00:16:55;6.68;;;6.00;;
39266;SDS011;24967;51.154;13.812;2022-09-14T00:19:23;9.00;;;6.20;;
39266;SDS011;24967;51.154;13.812;2022-09-14T00:21:53;6.80;;;6.15;;
39266;SDS011;24967;51.154;13.812;2022-09-14T00:24:21;6.80;;;6.20;;
39266;SDS011;24967;51.154;13.812;2022-09-14T00:26:48;7.03;;;6.43;;
39266;SDS011;24967;51.154;13.812;2022-09-14T00:29:15;6.35;;;5.80;;
39266;SDS011;24967;51.154;13.812;2022-09-14T00:31:42;6.53;;;5.82;;
39266;SDS011;24967;51.154;13.812;2022-09-14T00:34:10;6.57;;;5.97;;
39266;SDS011;24967;51.154;13.812;2022-09-14T00:36:39;6.20;;;5.60;;
39266;SDS011;24967;51.154;13.812;2022-09-14T00:39:08;6.85;;;6.20;;
39266;SDS011;24967;51.154;13.812;2022-09-14T00:41:35;10.25;;;7.53;;
39266;SDS011;24967;51.154;13.812;2022-09-14T00:44:04;9.95;;;6.60;;
39266;SDS011;24967;51.154;13.812;2022-09-14T00:46:34;7.30;;;6.60;;
39266;SDS011;24967;51.154;13.812;2022-09-14T00:49:03;7.13;;;6.43;;
39266;SDS011;24967;51.154;13.812;2022-09-14T00:51:32;7.43;;;6.70;;
39266;SDS011;24967;51.154;13.812;2022-09-14T00:54:00;6.97;;;6.07;;
39266;SDS011;24967;51.154;13.812;2022-09-14T00:56:29;7.60;;;6.90;;
39266;SDS011;24967;51.154;13.812;2022-09-14T00:58:56;7.75;;;6.57;;
39266;SDS011;24967;51.154;13.812;2022-09-14T01:01:24;7.38;;;6.68;;
39266;SDS011;24967;51.154;13.812;2022-09-14T01:03:52;6.95;;;5.93;;
39266;SDS011;24967;51.154;13.812;2022-09-14T01:06:22;9.82;;;6.70;;
39266;SDS011;24967;51.154;13.812;2022-09-14T01:09:06;10.27;;;6.65;;
39266;SDS011;24967;51.154;13.812;2022-09-14T01:11:56;9.07;;;7.05;;
39266;SDS011;24967;51.154;13.812;2022-09-14T01:14:33;8.60;;;7.63;;
39266;SDS011;24967;51.154;13.812;2022-09-14T01:17:06;6.85;;;6.28;;
39266;SDS011;24967;51.154;13.812;2022-09-14T01:19:43;7.10;;;6.40;;
39266;SDS011;24967;51.154;13.812;2022-09-14T01:22:31;7.38;;;6.63;;
39266;SDS011;24967;51.154;13.812;2022-09-14T01:25:05;8.80;;;7.80;;
39266;SDS011;24967;51.154;13.812;2022-09-14T01:27:43;11.38;;;7.75;;
39266;SDS011;24967;51.154;13.812;2022-09-14T01:30:13;9.85;;;7.82;;
39266;SDS011;24967;51.154;13.812;2022-09-14T01:32:48;10.88;;;8.07;;
39266;SDS011;24967;51.154;13.812;2022-09-14T01:35:21;9.48;;;7.25;;
39266;SDS011;24967;51.154;13.812;2022-09-14T01:37:57;8.15;;;7.38;;
39266;SDS011;24967;51.154;13.812;2022-09-14T01:40:29;7.90;;;7.15;;
39266;SDS011;24967;51.154;13.812;2022-09-14T01:43:05;7.80;;;7.10;;
39266;SDS011;24967;51.154;13.812;2022-09-14T01:45:38;7.35;;;6.65;;
39266;SDS011;24967;51.154;13.812;2022-09-14T01:48:10;7.72;;;6.45;;
39266;SDS011;24967;51.154;13.812;2022-09-14T01:50:42;8.18;;;7.40;;
39266;SDS011;24967;51.154;13.812;2022-09-14T01:53:13;6.70;;;6.07;;
39266;SDS011;24967;51.154;13.812;2022-09-14T01:55:46;7.70;;;6.80;;
39266;SDS011;24967;51.154;13.812;2022-09-14T01:58:20;7.82;;;7.05;;
39266;SDS011;24967;51.154;13.812;2022-09-14T02:00:54;7.45;;;6.63;;
39266;SDS011;24967;51.154;13.812;2022-09-14T02:03:25;8.48;;;7.38;;
39266;SDS011;24967;51.154;13.812;2022-09-14T02:05:55;9.18;;;7.10;;
39266;SDS011;24967;51.154;13.812;2022-09-14T02:08:27;7.55;;;6.78;;
39266;SDS011;24967;51.154;13.812;2022-09-14T02:10:56;7.60;;;6.78;;
39266;SDS011;24967;51.154;13.812;2022-09-14T02:13:25;8.68;;;6.05;;
39266;SDS011;24967;51.154;13.812;2022-09-14T02:15:53;7.55;;;6.85;;
39266;SDS011;24967;51.154;13.812;2022-09-14T02:18:21;7.60;;;6.90;;
39266;SDS011;24967;51.154;13.812;2022-09-14T02:20:49;6.50;;;5.93;;
39266;SDS011;24967;51.154;13.812;2022-09-14T02:23:20;7.88;;;7.00;;
39266;SDS011;24967;51.154;13.812;2022-09-14T02:25:48;9.32;;;6.72;;
39266;SDS011;24967;51.154;13.812;2022-09-14T02:28:15;7.03;;;6.38;;
39266;SDS011;24967;51.154;13.812;2022-09-14T02:30:47;6.90;;;6.25;;
39266;SDS011;24967;51.154;13.812;2022-09-14T02:33:23;8.60;;;7.60;;
39266;SDS011;24967;51.154;13.812;2022-09-14T02:35:59;9.15;;;7.13;;
39266;SDS011;24967;51.154;13.812;2022-09-14T02:38:32;6.85;;;6.25;;
39266;SDS011;24967;51.154;13.812;2022-09-14T02:41:08;6.25;;;5.68;;
39266;SDS011;24967;51.154;13.812;2022-09-14T02:43:45;9.80;;;6.40;;
39266;SDS011;24967;51.154;13.812;2022-09-14T02:46:22;7.97;;;5.70;;
39266;SDS011;24967;51.154;13.812;2022-09-14T02:48:59;6.10;;;5.60;;
39266;SDS011;24967;51.154;13.812;2022-09-14T02:51:35;6.93;;;6.22;;
39266;SDS011;24967;51.154;13.812;2022-09-14T02:54:10;7.35;;;6.75;;
39266;SDS011;24967;51.154;13.812;2022-09-14T02:56:42;7.40;;;6.80;;
39266;SDS011;24967;51.154;13.812;2022-09-14T02:59:13;6.82;;;6.22;;
39266;SDS011;24967;51.154;13.812;2022-09-14T03:01:42;7.10;;;6.40;;
39266;SDS011;24967;51.154;13.812;2022-09-14T03:04:11;7.35;;;6.65;;
39266;SDS011;24967;51.154;13.812;2022-09-14T03:06:38;8.15;;;7.07;;
39266;SDS011;24967;51.154;13.812;2022-09-14T03:09:08;7.53;;;6.93;;
39266;SDS011;24967;51.154;13.812;2022-09-14T03:11:35;7.03;;;6.43;;
39266;SDS011;24967;51.154;13.812;2022-09-14T03:14:03;7.00;;;6.30;;
39266;SDS011;24967;51.154;13.812;2022-09-14T03:16:32;6.75;;;6.15;;
39266;SDS011;24967;51.154;13.812;2022-09-14T03:19:02;7.03;;;6.43;;
39266;SDS011;24967;51.154;13.812;2022-09-14T03:21:31;7.18;;;6.47;;
39266;SDS011;24967;51.154;13.812;2022-09-14T03:23:59;7.60;;;6.90;;
39266;SDS011;24967;51.154;13.812;2022-09-14T03:26:27;6.55;;;6.05;;
39266;SDS011;24967;51.154;13.812;2022-09-14T03:28:56;6.97;;;6.28;;
39266;SDS011;24967;51.154;13.812;2022-09-14T03:31:26;7.35;;;6.63;;
39266;SDS011;24967;51.154;13.812;2022-09-14T03:33:54;7.15;;;6.15;;
39266;SDS011;24967;51.154;13.812;2022-09-14T03:36:26;7.95;;;6.70;;
39266;SDS011;24967;51.154;13.812;2022-09-14T03:38:57;12.43;;;7.35;;
39266;SDS011;24967;51.154;13.812;2022-09-14T03:41:27;8.57;;;7.72;;
39266;SDS011;24967;51.154;13.812;2022-09-14T03:43:54;8.27;;;7.47;;
39266;SDS011;24967;51.154;13.812;2022-09-14T03:46:23;8.23;;;7.07;;
39266;SDS011;24967;51.154;13.812;2022-09-14T03:48:50;8.35;;;7.30;;
39266;SDS011;24967;51.154;13.812;2022-09-14T03:51:19;8.63;;;7.05;;
39266;SDS011;24967;51.154;13.812;2022-09-14T03:53:49;9.38;;;6.82;;
39266;SDS011;24967;51.154;13.812;2022-09-14T03:56:19;7.10;;;6.50;;
39266;SDS011;24967;51.154;13.812;2022-09-14T03:58:48;7.60;;;6.85;;
39266;SDS011;24967;51.154;13.812;2022-09-14T04:01:19;8.40;;;7.60;;
39266;SDS011;24967;51.154;13.812;2022-09-14T04:03:50;7.60;;;6.90;;
39266;SDS011;24967;51.154;13.812;2022-09-14T04:06:18;8.82;;;7.40;;
39266;SDS011;24967;51.154;13.812;2022-09-14T04:08:49;7.10;;;6.50;;
39266;SDS011;24967;51.154;13.812;2022-09-14T04:11:18;10.43;;;6.75;;
39266;SDS011;24967;51.154;13.812;2022-09-14T04:13:47;7.65;;;6.85;;
39266;SDS011;24967;51.154;13.812;2022-09-14T04:16:16;7.95;;;6.45;;
39266;SDS011;24967;51.154;13.812;2022-09-14T04:18:45;6.97;;;6.05;;
39266;SDS011;24967;51.154;13.812;2022-09-14T04:21:14;6.63;;;6.13;;
39266;SDS011;24967;51.154;13.812;2022-09-14T04:23:43;6.75;;;6.15;;
39266;SDS011;24967;51.154;13.812;2022-09-14T04:26:13;6.25;;;5.75;;
39266;SDS011;24967;51.154;13.812;2022-09-14T04:28:45;6.53;;;5.93;;
39266;SDS011;24967;51.154;13.812;2022-09-14T04:31:15;9.65;;;7.22;;
39266;SDS011;24967;51.154;13.812;2022-09-14T04:33:43;8.20;;;7.38;;
39266;SDS011;24967;51.154;13.812;2022-09-14T04:36:15;7.70;;;7.00;;
39266;SDS011;24967;51.154;13.812;2022-09-14T04:38:45;7.55;;;6.85;;
39266;SDS011;24967;51.154;13.812;2022-09-14T04:41:16;8.07;;;7.28;;
39266;SDS011;24967;51.154;13.812;2022-09-14T04:43:46;8.02;;;6.47;;
39266;SDS011;24967;51.154;13.812;2022-09-14T04:46:15;6.30;;;5.80;;
39266;SDS011;24967;51.154;13.812;2022-09-14T04:48:45;6.50;;;6.00;;
39266;SDS011;24967;51.154;13.812;2022-09-14T04:51:15;7.47;;;6.75;;
39266;SDS011;24967;51.154;13.812;2022-09-14T04:53:45;6.55;;;5.95;;
39266;SDS011;24967;51.154;13.812;2022-09-14T04:56:18;6.15;;;5.63;;
39266;SDS011;24967;51.154;13.812;2022-09-14T04:58:48;8.32;;;7.60;;
39266;SDS011;24967;51.154;13.812;2022-09-14T05:01:20;9.73;;;7.72;;
39266;SDS011;24967;51.154;13.812;2022-09-14T05:03:49;9.13;;;8.02;;
39266;SDS011;24967;51.154;13.812;2022-09-14T05:06:18;9.13;;;7.88;;
39266;SDS011;24967;51.154;13.812;2022-09-14T05:08:47;8.02;;;7.25;;
39266;SDS011;24967;51.154;13.812;2022-09-14T05:11:24;6.82;;;6.32;;
39266;SDS011;24967;51.154;13.812;2022-09-14T05:13:55;10.18;;;7.35;;
39266;SDS011;24967;51.154;13.812;2022-09-14T05:16:25;10.02;;;8.73;;
39266;SDS011;24967;51.154;13.812;2022-09-14T05:18:55;8.88;;;8.02;;
39266;SDS011;24967;51.154;13.812;2022-09-14T05:21:25;10.40;;;7.72;;
39266;SDS011;24967;51.154;13.812;2022-09-14T05:23:53;10.82;;;8.32;;
39266;SDS011;24967;51.154;13.812;2022-09-14T05:26:25;10.23;;;8.27;;
39266;SDS011;24967;51.154;13.812;2022-09-14T05:28:54;12.85;;;8.95;;
39266;SDS011;24967;51.154;13.812;2022-09-14T05:31:23;10.32;;;8.85;;
39266;SDS011;24967;51.154;13.812;2022-09-14T05:33:52;12.40;;;10.05;;
39266;SDS011;24967;51.154;13.812;2022-09-14T05:36:20;11.70;;;9.15;;
39266;SDS011;24967;51.154;13.812;2022-09-14T05:38:48;9.73;;;8.75;;
39266;SDS011;24967;51.154;13.812;2022-09-14T05:41:16;15.07;;;10.77;;
39266;SDS011;24967;51.154;13.812;2022-09-14T05:43:45;12.30;;;8.98;;
39266;SDS011;24967;51.154;13.812;2022-09-14T05:46:13;12.43;;;9.70;;
39266;SDS011;24967;51.154;13.812;2022-09-14T05:48:44;12.90;;;10.38;;
39266;SDS011;24967;51.154;13.812;2022-09-14T05:51:16;12.45;;;10.27;;
39266;SDS011;24967;51.154;13.812;2022-09-14T05:53:46;13.07;;;9.93;;
39266;SDS011;24967;51.154;13.812;2022-09-14T05:56:15;10.98;;;9.23;;
39266;SDS011;24967;51.154;13.812;2022-09-14T05:58:45;12.85;;;9.68;;
39266;SDS011;24967;51.154;13.812;2022-09-14T06:01:13;13.35;;;10.70;;
39266;SDS011;24967;51.154;13.812;2022-09-14T06:03:43;11.75;;;10.50;;
39266;SDS011;24967;51.154;13.812;2022-09-14T06:06:11;13.27;;;9.48;;
39266;SDS011;24967;51.154;13.812;2022-09-14T06:08:39;11.45;;;9.77;;
39266;SDS011;24967;51.154;13.812;2022-09-14T06:11:08;15.02;;;11.48;;
39266;SDS011;24967;51.154;13.812;2022-09-14T06:13:38;14.10;;;10.68;;
39266;SDS011;24967;51.154;13.812;2022-09-14T06:16:09;11.45;;;9.70;;
39266;SDS011;24967;51.154;13.812;2022-09-14T06:18:38;13.10;;;10.07;;
39266;SDS011;24967;51.154;13.812;2022-09-14T06:21:07;10.98;;;9.88;;
39266;SDS011;24967;51.154;13.812;2022-09-14T06:23:35;10.57;;;9.20;;
39266;SDS011;24967;51.154;13.812;2022-09-14T06:26:04;10.93;;;9.80;;
39266;SDS011;24967;51.154;13.812;2022-09-14T06:28:32;11.75;;;9.98;;
39266;SDS011;24967;51.154;13.812;2022-09-14T06:31:01;10.75;;;9.52;;
39266;SDS011;24967;51.154;13.812;2022-09-14T06:33:33;11.23;;;10.00;;
39266;SDS011;24967;51.154;13.812;2022-09-14T06:36:02;11.98;;;9.80;;
39266;SDS011;24967;51.154;13.812;2022-09-14T06:38:34;12.10;;;10.13;;
39266;SDS011;24967;51.154;13.812;2022-09-14T06:41:04;10.82;;;9.73;;
39266;SDS011;24967;51.154;13.812;2022-09-14T06:43:34;10.63;;;9.52;;
39266;SDS011;24967;51.154;13.812;2022-09-14T06:46:03;13.02;;;10.52;;
39266;SDS011;24967;51.154;13.812;2022-09-14T06:48:34;10.98;;;9.85;;
39266;SDS011;24967;51.154;13.812;2022-09-14T06:53:37;10.68;;;9.50;;
39266;SDS011;24967;51.154;13.812;2022-09-14T06:56:05;15.13;;;9.27;;
39266;SDS011;24967;51.154;13.812;2022-09-14T06:58:34;13.25;;;9.20;;
39266;SDS011;24967;51.154;13.812;2022-09-14T07:01:02;12.20;;;9.48;;
39266;SDS011;24967;51.154;13.812;2022-09-14T07:03:30;12.85;;;9.90;;
39266;SDS011;24967;51.154;13.812;2022-09-14T07:06:04;11.38;;;9.68;;
39266;SDS011;24967;51.154;13.812;2022-09-14T07:08:35;10.95;;;9.30;;
39266;SDS011;24967;51.154;13.812;2022-09-14T07:11:04;12.98;;;9.73;;
39266;SDS011;24967;51.154;13.812;2022-09-14T07:13:33;10.00;;;9.02;;
39266;SDS011;24967;51.154;13.812;2022-09-14T07:16:01;10.77;;;8.65;;
39266;SDS011;24967;51.154;13.812;2022-09-14T07:18:30;11.85;;;9.05;;
39266;SDS011;24967;51.154;13.812;2022-09-14T07:21:03;12.77;;;9.15;;
39266;SDS011;24967;51.154;13.812;2022-09-14T07:23:31;11.82;;;9.77;;
39266;SDS011;24967;51.154;13.812;2022-09-14T07:26:01;10.57;;;8.73;;
39266;SDS011;24967;51.154;13.812;2022-09-14T07:28:31;14.52;;;9.52;;
39266;SDS011;24967;51.154;13.812;2022-09-14T07:30:59;11.60;;;9.02;;
39266;SDS011;24967;51.154;13.812;2022-09-14T07:33:28;11.35;;;8.88;;
39266;SDS011;24967;51.154;13.812;2022-09-14T07:36:04;11.63;;;8.93;;
39266;SDS011;24967;51.154;13.812;2022-09-14T07:38:32;10.60;;;9.50;;
39266;SDS011;24967;51.154;13.812;2022-09-14T07:41:00;11.20;;;9.70;;
39266;SDS011;24967;51.154;13.812;2022-09-14T07:43:28;12.63;;;10.32;;
39266;SDS011;24967;51.154;13.812;2022-09-14T07:46:00;10.77;;;9.75;;
39266;SDS011;24967;51.154;13.812;2022-09-14T07:48:29;12.15;;;10.23;;
39266;SDS011;24967;51.154;13.812;2022-09-14T07:50:58;11.10;;;10.00;;
39266;SDS011;24967;51.154;13.812;2022-09-14T07:53:28;9.93;;;8.75;;
39266;SDS011;24967;51.154;13.812;2022-09-14T07:55:57;12.55;;;9.85;;
39266;SDS011;24967;51.154;13.812;2022-09-14T07:58:26;13.52;;;9.63;;
39266;SDS011;24967;51.154;13.812;2022-09-14T08:00:57;12.35;;;9.90;;
39266;SDS011;24967;51.154;13.812;2022-09-14T08:03:27;10.23;;;9.23;;
39266;SDS011;24967;51.154;13.812;2022-09-14T08:05:59;12.75;;;10.80;;
39266;SDS011;24967;51.154;13.812;2022-09-14T08:08:29;15.27;;;9.48;;
39266;SDS011;24967;51.154;13.812;2022-09-14T08:11:04;12.95;;;9.60;;
39266;SDS011;24967;51.154;13.812;2022-09-14T08:13:35;11.57;;;9.63;;
39266;SDS011;24967;51.154;13.812;2022-09-14T08:16:04;11.50;;;9.93;;
39266;SDS011;24967;51.154;13.812;2022-09-14T08:18:32;9.65;;;8.63;;
39266;SDS011;24967;51.154;13.812;2022-09-14T08:21:04;11.80;;;8.38;;
39266;SDS011;24967;51.154;13.812;2022-09-14T08:23:34;9.65;;;7.97;;
39266;SDS011;24967;51.154;13.812;2022-09-14T08:26:03;9.63;;;7.85;;
39266;SDS011;24967;51.154;13.812;2022-09-14T08:28:33;9.60;;;7.88;;
39266;SDS011;24967;51.154;13.812;2022-09-14T08:31:03;10.10;;;8.40;;
39266;SDS011;24967;51.154;13.812;2022-09-14T08:33:33;10.80;;;9.13;;
39266;SDS011;24967;51.154;13.812;2022-09-14T08:36:02;9.88;;;8.77;;
39266;SDS011;24967;51.154;13.812;2022-09-14T08:38:30;10.55;;;8.90;;
39266;SDS011;24967;51.154;13.812;2022-09-14T08:41:10;10.05;;;9.00;;
39266;SDS011;24967;51.154;13.812;2022-09-14T08:43:44;11.07;;;8.55;;
39266;SDS011;24967;51.154;13.812;2022-09-14T08:46:14;10.20;;;8.75;;
39266;SDS011;24967;51.154;13.812;2022-09-14T08:48:50;8.77;;;7.95;;
39266;SDS011;24967;51.154;13.812;2022-09-14T08:51:19;11.50;;;8.32;;
39266;SDS011;24967;51.154;13.812;2022-09-14T08:53:47;8.98;;;8.13;;
39266;SDS011;24967;51.154;13.812;2022-09-14T08:56:20;7.95;;;7.35;;
39266;SDS011;24967;51.154;13.812;2022-09-14T08:58:58;11.38;;;8.43;;
39266;SDS011;24967;51.154;13.812;2022-09-14T09:01:44;8.43;;;7.63;;
39266;SDS011;24967;51.154;13.812;2022-09-14T09:04:22;10.30;;;7.30;;
39266;SDS011;24967;51.154;13.812;2022-09-14T09:06:59;7.97;;;7.22;;
39266;SDS011;24967;51.154;13.812;2022-09-14T09:09:38;12.23;;;7.15;;
39266;SDS011;24967;51.154;13.812;2022-09-14T09:12:13;7.68;;;6.80;;
39266;SDS011;24967;51.154;13.812;2022-09-14T09:14:44;9.70;;;6.43;;
39266;SDS011;24967;51.154;13.812;2022-09-14T09:17:17;8.60;;;7.70;;
39266;SDS011;24967;51.154;13.812;2022-09-14T09:19:52;8.13;;;7.28;;
39266;SDS011;24967;51.154;13.812;2022-09-14T09:22:26;11.23;;;6.88;;
39266;SDS011;24967;51.154;13.812;2022-09-14T09:24:58;7.60;;;6.90;;
39266;SDS011;24967;51.154;13.812;2022-09-14T09:27:31;8.15;;;6.82;;
39266;SDS011;24967;51.154;13.812;2022-09-14T09:29:59;11.30;;;7.40;;
39266;SDS011;24967;51.154;13.812;2022-09-14T09:32:27;9.35;;;7.28;;
39266;SDS011;24967;51.154;13.812;2022-09-14T09:34:54;8.07;;;7.38;;
39266;SDS011;24967;51.154;13.812;2022-09-14T09:37:22;11.18;;;7.18;;
39266;SDS011;24967;51.154;13.812;2022-09-14T09:39:50;8.80;;;7.97;;
39266;SDS011;24967;51.154;13.812;2022-09-14T09:42:19;9.77;;;6.80;;
39266;SDS011;24967;51.154;13.812;2022-09-14T09:44:53;16.15;;;8.05;;
39266;SDS011;24967;51.154;13.812;2022-09-14T09:47:25;14.52;;;8.27;;
39266;SDS011;24967;51.154;13.812;2022-09-14T09:49:56;8.48;;;6.75;;
39266;SDS011;24967;51.154;13.812;2022-09-14T09:52:26;11.57;;;7.50;;
39266;SDS011;24967;51.154;13.812;2022-09-14T09:54:56;10.35;;;7.88;;
39266;SDS011;24967;51.154;13.812;2022-09-14T09:57:29;10.80;;;7.72;;
39266;SDS011;24967;51.154;13.812;2022-09-14T10:00:17;6.20;;;5.68;;
39266;SDS011;24967;51.154;13.812;2022-09-14T10:02:48;9.07;;;7.78;;
39266;SDS011;24967;51.154;13.812;2022-09-14T10:05:19;9.13;;;7.65;;
39266;SDS011;24967;51.154;13.812;2022-09-14T10:07:53;10.40;;;7.30;;
39266;SDS011;24967;51.154;13.812;2022-09-14T10:10:25;8.63;;;7.82;;
39266;SDS011;24967;51.154;13.812;2022-09-14T10:13:14;14.57;;;7.95;;
39266;SDS011;24967;51.154;13.812;2022-09-14T10:15:50;9.10;;;7.47;;
39266;SDS011;24967;51.154;13.812;2022-09-14T10:18:18;8.63;;;7.83;;
39266;SDS011;24967;51.154;13.812;2022-09-14T10:21:04;10.43;;;7.88;;
39266;SDS011;24967;51.154;13.812;2022-09-14T10:23:34;9.10;;;7.45;;
39266;SDS011;24967;51.154;13.812;2022-09-14T10:26:17;9.82;;;7.82;;
39266;SDS011;24967;51.154;13.812;2022-09-14T10:28:52;10.00;;;7.78;;
39266;SDS011;24967;51.154;13.812;2022-09-14T10:31:24;10.88;;;7.82;;
39266;SDS011;24967;51.154;13.812;2022-09-14T10:33:56;8.20;;;7.38;;
39266;SDS011;24967;51.154;13.812;2022-09-14T10:36:27;10.43;;;7.78;;
39266;SDS011;24967;51.154;13.812;2022-09-14T10:38:57;7.95;;;7.15;;
39266;SDS011;24967;51.154;13.812;2022-09-14T10:41:34;8.63;;;7.72;;
39266;SDS011;24967;51.154;13.812;2022-09-14T10:44:21;10.88;;;7.95;;
39266;SDS011;24967;51.154;13.812;2022-09-14T10:47:15;13.25;;;7.57;;
39266;SDS011;24967;51.154;13.812;2022-09-14T10:49:56;9.10;;;8.05;;
39266;SDS011;24967;51.154;13.812;2022-09-14T10:52:37;10.27;;;7.57;;
39266;SDS011;24967;51.154;13.812;2022-09-14T10:58:15;12.68;;;8.63;;
39266;SDS011;24967;51.154;13.812;2022-09-14T11:00:57;11.30;;;8.98;;
39266;SDS011;24967;51.154;13.812;2022-09-14T11:03:42;11.57;;;9.95;;
39266;SDS011;24967;51.154;13.812;2022-09-14T11:06:26;9.63;;;8.43;;
39266;SDS011;24967;51.154;13.812;2022-09-14T11:09:08;10.60;;;9.55;;
39266;SDS011;24967;51.154;13.812;2022-09-14T11:11:46;12.23;;;10.27;;
39266;SDS011;24967;51.154;13.812;2022-09-14T11:14:24;11.88;;;9.75;;
39266;SDS011;24967;51.154;13.812;2022-09-14T11:17:04;13.32;;;9.88;;
39266;SDS011;24967;51.154;13.812;2022-09-14T11:19:43;12.20;;;9.63;;
39266;SDS011;24967;51.154;13.812;2022-09-14T11:22:20;10.55;;;9.23;;
39266;SDS011;24967;51.154;13.812;2022-09-14T11:24:56;9.90;;;8.90;;
39266;SDS011;24967;51.154;13.812;2022-09-14T11:27:31;12.20;;;9.43;;
39266;SDS011;24967;51.154;13.812;2022-09-14T11:30:05;12.90;;;9.85;;
39266;SDS011;24967;51.154;13.812;2022-09-14T11:32:41;12.68;;;9.52;;
39266;SDS011;24967;51.154;13.812;2022-09-14T11:35:16;16.45;;;10.10;;
39266;SDS011;24967;51.154;13.812;2022-09-14T11:37:48;12.73;;;9.80;;
39266;SDS011;24967;51.154;13.812;2022-09-14T11:40:21;12.18;;;10.32;;
39266;SDS011;24967;51.154;13.812;2022-09-14T11:42:55;10.00;;;9.00;;
39266;SDS011;24967;51.154;13.812;2022-09-14T11:45:28;12.07;;;10.88;;
39266;SDS011;24967;51.154;13.812;2022-09-14T11:48:03;11.93;;;9.52;;
39266;SDS011;24967;51.154;13.812;2022-09-14T11:50:39;14.77;;;10.70;;
39266;SDS011;24967;51.154;13.812;2022-09-14T11:53:10;11.95;;;10.27;;
39266;SDS011;24967;51.154;13.812;2022-09-14T11:55:39;14.15;;;11.15;;
39266;SDS011;24967;51.154;13.812;2022-09-14T11:58:16;12.57;;;10.90;;
39266;SDS011;24967;51.154;13.812;2022-09-14T12:01:04;12.93;;;11.13;;
39266;SDS011;24967;51.154;13.812;2022-09-14T12:03:52;14.13;;;11.05;;
39266;SDS011;24967;51.154;13.812;2022-09-14T12:12:29;12.55;;;10.93;;
39266;SDS011;24967;51.154;13.812;2022-09-14T12:15:01;11.10;;;10.00;;
39266;SDS011;24967;51.154;13.812;2022-09-14T12:17:38;16.13;;;11.65;;
39266;SDS011;24967;51.154;13.812;2022-09-14T12:20:24;14.20;;;11.45;;
39266;SDS011;24967;51.154;13.812;2022-09-14T12:23:11;17.35;;;12.60;;
39266;SDS011;24967;51.154;13.812;2022-09-14T12:25:55;13.80;;;10.95;;
39266;SDS011;24967;51.154;13.812;2022-09-14T12:28:41;13.38;;;11.35;;
39266;SDS011;24967;51.154;13.812;2022-09-14T12:31:35;14.52;;;12.18;;
39266;SDS011;24967;51.154;13.812;2022-09-14T12:36:56;16.15;;;13.00;;
39266;SDS011;24967;51.154;13.812;2022-09-14T12:39:30;15.23;;;12.77;;
39266;SDS011;24967;51.154;13.812;2022-09-14T12:41:59;16.00;;;12.33;;
39266;SDS011;24967;51.154;13.812;2022-09-14T12:44:29;19.00;;;15.02;;
39266;SDS011;24967;51.154;13.812;2022-09-14T12:50:06;17.02;;;14.50;;
39266;SDS011;24967;51.154;13.812;2022-09-14T12:52:38;16.67;;;12.50;;
39266;SDS011;24967;51.154;13.812;2022-09-14T12:55:20;14.77;;;12.77;;
39266;SDS011;24967;51.154;13.812;2022-09-14T12:58:12;16.48;;;13.65;;
39266;SDS011;24967;51.154;13.812;2022-09-14T13:00:54;16.73;;;14.98;;
39266;SDS011;24967;51.154;13.812;2022-09-14T13:03:36;17.55;;;14.63;;
39266;SDS011;24967;51.154;13.812;2022-09-14T13:06:12;17.60;;;14.63;;
39266;SDS011;24967;51.154;13.812;2022-09-14T13:08:45;17.08;;;13.07;;
39266;SDS011;24967;51.154;13.812;2022-09-14T13:11:23;17.08;;;13.68;;
39266;SDS011;24967;51.154;13.812;2022-09-14T13:13:53;14.23;;;12.75;;
39266;SDS011;24967;51.154;13.812;2022-09-14T13:16:25;15.35;;;13.27;;
39266;SDS011;24967;51.154;13.812;2022-09-14T13:19:01;15.73;;;11.98;;
39266;SDS011;24967;51.154;13.812;2022-09-14T13:21:29;14.90;;;11.40;;
39266;SDS011;24967;51.154;13.812;2022-09-14T13:23:58;14.02;;;11.13;;
39266;SDS011;24967;51.154;13.812;2022-09-14T13:26:27;13.98;;;11.35;;
39266;SDS011;24967;51.154;13.812;2022-09-14T13:28:58;19.02;;;12.65;;
39266;SDS011;24967;51.154;13.812;2022-09-14T13:31:27;16.00;;;12.25;;
39266;SDS011;24967;51.154;13.812;2022-09-14T13:33:56;14.35;;;10.48;;
39266;SDS011;24967;51.154;13.812;2022-09-14T13:36:25;12.95;;;9.30;;
39266;SDS011;24967;51.154;13.812;2022-09-14T13:38:53;12.90;;;9.43;;
39266;SDS011;24967;51.154;13.812;2022-09-14T13:41:22;12.07;;;9.02;;
39266;SDS011;24967;51.154;13.812;2022-09-14T13:43:51;16.75;;;9.32;;
39266;SDS011;24967;51.154;13.812;2022-09-14T13:46:19;12.18;;;9.00;;
39266;SDS011;24967;51.154;13.812;2022-09-14T13:48:47;14.75;;;8.82;;
39266;SDS011;24967;51.154;13.812;2022-09-14T13:51:14;8.13;;;7.10;;
39266;SDS011;24967;51.154;13.812;2022-09-14T13:53:43;13.30;;;8.43;;
39266;SDS011;24967;51.154;13.812;2022-09-14T13:56:20;9.02;;;7.50;;
39266;SDS011;24967;51.154;13.812;2022-09-14T13:58:48;13.75;;;8.52;;
39266;SDS011;24967;51.154;13.812;2022-09-14T14:01:38;8.77;;;7.38;;
39266;SDS011;24967;51.154;13.812;2022-09-14T14:04:16;11.20;;;8.07;;
39266;SDS011;24967;51.154;13.812;2022-09-14T14:06:57;9.05;;;7.97;;
39266;SDS011;24967;51.154;13.812;2022-09-14T14:09:36;13.82;;;8.38;;
39266;SDS011;24967;51.154;13.812;2022-09-14T14:12:09;9.20;;;8.23;;
39266;SDS011;24967;51.154;13.812;2022-09-14T14:14:38;15.30;;;9.02;;
39266;SDS011;24967;51.154;13.812;2022-09-14T14:17:23;13.48;;;10.50;;
39266;SDS011;24967;51.154;13.812;2022-09-14T14:22:26;15.25;;;9.45;;
39266;SDS011;24967;51.154;13.812;2022-09-14T14:24:55;11.75;;;9.50;;
39266;SDS011;24967;51.154;13.812;2022-09-14T14:27:29;15.93;;;10.82;;
39266;SDS011;24967;51.154;13.812;2022-09-14T14:29:58;12.98;;;10.32;;
39266;SDS011;24967;51.154;13.812;2022-09-14T14:32:28;13.98;;;10.77;;
39266;SDS011;24967;51.154;13.812;2022-09-14T14:35:02;12.95;;;10.93;;
39266;SDS011;24967;51.154;13.812;2022-09-14T14:37:30;15.50;;;10.07;;
39266;SDS011;24967;51.154;13.812;2022-09-14T14:39:59;12.75;;;10.45;;
39266;SDS011;24967;51.154;13.812;2022-09-14T14:42:27;16.33;;;10.90;;
39266;SDS011;24967;51.154;13.812;2022-09-14T14:44:55;13.48;;;10.40;;
39266;SDS011;24967;51.154;13.812;2022-09-14T14:47:22;13.48;;;10.35;;
39266;SDS011;24967;51.154;13.812;2022-09-14T14:49:53;16.05;;;11.90;;
39266;SDS011;24967;51.154;13.812;2022-09-14T14:52:20;13.70;;;11.23;;
39266;SDS011;24967;51.154;13.812;2022-09-14T14:54:49;14.77;;;11.70;;
39266;SDS011;24967;51.154;13.812;2022-09-14T14:57:17;14.30;;;12.18;;
39266;SDS011;24967;51.154;13.812;2022-09-14T14:59:45;12.32;;;10.90;;
39266;SDS011;24967;51.154;13.812;2022-09-14T15:02:16;16.35;;;11.55;;
39266;SDS011;24967;51.154;13.812;2022-09-14T15:04:44;17.63;;;11.45;;
39266;SDS011;24967;51.154;13.812;2022-09-14T15:07:14;18.70;;;11.93;;
39266;SDS011;24967;51.154;13.812;2022-09-14T15:09:42;13.95;;;10.55;;
39266;SDS011;24967;51.154;13.812;2022-09-14T15:12:10;13.43;;;11.13;;